sensor_id;sensor_type;location;lat;lon;timestamp;P1;durP1;ratioP1;P2;durP2;ratioP2
64225;SDS011;50545;56.064;26.178;2022-09-17T00:01:17;1.85;;;1.27;;
64225;SDS011;50545;56.064;26.178;2022-09-17T00:03:50;2.10;;;1.20;;
64225;SDS011;50545;56.064;26.178;2022-09-17T00:06:18;4.22;;;1.30;;
64225;SDS011;50545;56.064;26.178;2022-09-17T00:08:47;1.70;;;1.20;;
64225;SDS011;50545;56.064;26.178;2022-09-17T00:11:19;2.67;;;1.10;;
64225;SDS011;50545;56.064;26.178;2022-09-17T00:13:48;1.90;;;1.30;;
64225;SDS011;50545;56.064;26.178;2022-09-17T00:16:22;4.25;;;1.23;;
64225;SDS011;50545;56.064;26.178;2022-09-17T00:18:54;2.38;;;1.25;;
64225;SDS011;50545;56.064;26.178;2022-09-17T00:21:21;2.13;;;1.10;;
64225;SDS011;50545;56.064;26.178;2022-09-17T00:23:59;3.17;;;1.30;;
64225;SDS011;50545;56.064;26.178;2022-09-17T00:26:28;1.70;;;1.10;;
64225;SDS011;50545;56.064;26.178;2022-09-17T00:28:57;2.92;;;1.25;;
64225;SDS011;50545;56.064;26.178;2022-09-17T00:31:25;3.08;;;1.20;;
64225;SDS011;50545;56.064;26.178;2022-09-17T00:33:54;2.47;;;1.00;;
64225;SDS011;50545;56.064;26.178;2022-09-17T00:36:21;3.10;;;1.38;;
64225;SDS011;50545;56.064;26.178;2022-09-17T00:38:50;3.03;;;1.23;;
64225;SDS011;50545;56.064;26.178;2022-09-17T00:41:22;2.58;;;1.38;;
64225;SDS011;50545;56.064;26.178;2022-09-17T00:43:53;1.90;;;1.00;;
64225;SDS011;50545;56.064;26.178;2022-09-17T00:46:33;5.97;;;1.35;;
64225;SDS011;50545;56.064;26.178;2022-09-17T00:49:18;0.80;;;0.60;;
64225;SDS011;50545;56.064;26.178;2022-09-17T00:51:54;3.28;;;1.42;;
64225;SDS011;50545;56.064;26.178;2022-09-17T00:54:27;4.00;;;1.10;;
64225;SDS011;50545;56.064;26.178;2022-09-17T00:56:54;0.93;;;0.82;;
64225;SDS011;50545;56.064;26.178;2022-09-17T00:59:23;2.55;;;1.00;;
64225;SDS011;50545;56.064;26.178;2022-09-17T01:01:52;1.58;;;1.10;;
64225;SDS011;50545;56.064;26.178;2022-09-17T01:04:22;3.15;;;1.23;;
64225;SDS011;50545;56.064;26.178;2022-09-17T01:09:27;1.77;;;0.93;;
64225;SDS011;50545;56.064;26.178;2022-09-17T01:15:14;4.70;;;1.35;;
64225;SDS011;50545;56.064;26.178;2022-09-17T01:29:08;5.05;;;1.33;;
64225;SDS011;50545;56.064;26.178;2022-09-17T01:31:45;3.58;;;1.50;;
64225;SDS011;50545;56.064;26.178;2022-09-17T01:34:23;4.85;;;1.50;;
64225;SDS011;50545;56.064;26.178;2022-09-17T01:36:59;4.82;;;1.30;;
64225;SDS011;50545;56.064;26.178;2022-09-17T01:47:53;6.07;;;1.40;;
64225;SDS011;50545;56.064;26.178;2022-09-17T01:50:26;3.95;;;1.15;;
64225;SDS011;50545;56.064;26.178;2022-09-17T01:53:10;1.88;;;1.30;;
64225;SDS011;50545;56.064;26.178;2022-09-17T01:55:40;2.08;;;1.30;;
64225;SDS011;50545;56.064;26.178;2022-09-17T01:58:12;4.60;;;1.60;;
64225;SDS011;50545;56.064;26.178;2022-09-17T02:00:52;2.60;;;1.10;;
64225;SDS011;50545;56.064;26.178;2022-09-17T02:03:42;1.80;;;1.02;;
64225;SDS011;50545;56.064;26.178;2022-09-17T02:06:16;2.78;;;1.40;;
64225;SDS011;50545;56.064;26.178;2022-09-17T02:08:53;1.75;;;1.10;;
64225;SDS011;50545;56.064;26.178;2022-09-17T02:11:25;2.05;;;1.00;;
64225;SDS011;50545;56.064;26.178;2022-09-17T02:13:54;1.90;;;1.40;;
64225;SDS011;50545;56.064;26.178;2022-09-17T02:16:36;3.13;;;1.20;;
64225;SDS011;50545;56.064;26.178;2022-09-17T02:19:22;2.95;;;1.40;;
64225;SDS011;50545;56.064;26.178;2022-09-17T02:22:01;1.48;;;1.13;;
64225;SDS011;50545;56.064;26.178;2022-09-17T02:24:49;3.38;;;1.50;;
64225;SDS011;50545;56.064;26.178;2022-09-17T02:27:23;1.40;;;1.08;;
64225;SDS011;50545;56.064;26.178;2022-09-17T02:29:58;3.67;;;1.02;;
64225;SDS011;50545;56.064;26.178;2022-09-17T02:32:25;3.40;;;1.40;;
64225;SDS011;50545;56.064;26.178;2022-09-17T02:34:53;4.03;;;1.33;;
64225;SDS011;50545;56.064;26.178;2022-09-17T02:37:20;3.90;;;1.17;;
64225;SDS011;50545;56.064;26.178;2022-09-17T02:39:47;3.28;;;1.25;;
64225;SDS011;50545;56.064;26.178;2022-09-17T02:59:18;3.80;;;1.30;;
64225;SDS011;50545;56.064;26.178;2022-09-17T03:04:20;2.47;;;1.45;;
64225;SDS011;50545;56.064;26.178;2022-09-17T03:06:50;2.53;;;1.30;;
64225;SDS011;50545;56.064;26.178;2022-09-17T03:09:19;2.92;;;1.30;;
64225;SDS011;50545;56.064;26.178;2022-09-17T03:11:46;3.75;;;1.33;;
64225;SDS011;50545;56.064;26.178;2022-09-17T03:14:13;2.05;;;1.30;;
64225;SDS011;50545;56.064;26.178;2022-09-17T03:16:40;1.35;;;1.00;;
64225;SDS011;50545;56.064;26.178;2022-09-17T03:19:08;2.08;;;1.17;;
64225;SDS011;50545;56.064;26.178;2022-09-17T03:21:35;1.30;;;1.20;;
64225;SDS011;50545;56.064;26.178;2022-09-17T03:24:02;4.55;;;1.60;;
64225;SDS011;50545;56.064;26.178;2022-09-17T03:26:30;2.45;;;1.25;;
64225;SDS011;50545;56.064;26.178;2022-09-17T03:28:57;3.60;;;1.50;;
64225;SDS011;50545;56.064;26.178;2022-09-17T03:31:24;4.18;;;1.40;;
64225;SDS011;50545;56.064;26.178;2022-09-17T03:33:52;5.47;;;1.60;;
64225;SDS011;50545;56.064;26.178;2022-09-17T03:36:19;2.95;;;1.35;;
64225;SDS011;50545;56.064;26.178;2022-09-17T03:38:46;3.83;;;1.70;;
64225;SDS011;50545;56.064;26.178;2022-09-17T03:41:14;3.08;;;1.55;;
64225;SDS011;50545;56.064;26.178;2022-09-17T03:43:41;1.50;;;1.10;;
64225;SDS011;50545;56.064;26.178;2022-09-17T03:46:08;4.22;;;1.50;;
64225;SDS011;50545;56.064;26.178;2022-09-17T03:48:35;2.05;;;1.40;;
64225;SDS011;50545;56.064;26.178;2022-09-17T03:51:05;3.42;;;1.40;;
64225;SDS011;50545;56.064;26.178;2022-09-17T03:53:32;4.00;;;1.70;;
64225;SDS011;50545;56.064;26.178;2022-09-17T03:56:00;1.45;;;1.30;;
64225;SDS011;50545;56.064;26.178;2022-09-17T03:58:29;2.05;;;1.55;;
64225;SDS011;50545;56.064;26.178;2022-09-17T04:00:57;2.53;;;1.23;;
64225;SDS011;50545;56.064;26.178;2022-09-17T04:03:25;4.00;;;1.67;;
64225;SDS011;50545;56.064;26.178;2022-09-17T04:05:53;2.42;;;1.48;;
64225;SDS011;50545;56.064;26.178;2022-09-17T04:08:21;2.70;;;1.70;;
64225;SDS011;50545;56.064;26.178;2022-09-17T04:10:48;1.90;;;1.33;;
64225;SDS011;50545;56.064;26.178;2022-09-17T04:13:17;3.20;;;1.48;;
64225;SDS011;50545;56.064;26.178;2022-09-17T04:15:45;3.38;;;1.30;;
64225;SDS011;50545;56.064;26.178;2022-09-17T04:18:13;1.25;;;1.15;;
64225;SDS011;50545;56.064;26.178;2022-09-17T04:20:41;1.95;;;1.17;;
64225;SDS011;50545;56.064;26.178;2022-09-17T04:23:09;2.40;;;1.38;;
64225;SDS011;50545;56.064;26.178;2022-09-17T04:25:37;2.25;;;1.27;;
64225;SDS011;50545;56.064;26.178;2022-09-17T04:28:05;3.83;;;1.63;;
64225;SDS011;50545;56.064;26.178;2022-09-17T04:30:32;3.10;;;1.50;;
64225;SDS011;50545;56.064;26.178;2022-09-17T04:32:59;4.43;;;1.80;;
64225;SDS011;50545;56.064;26.178;2022-09-17T04:35:27;2.53;;;1.45;;
64225;SDS011;50545;56.064;26.178;2022-09-17T04:37:57;3.25;;;1.60;;
64225;SDS011;50545;56.064;26.178;2022-09-17T04:40:25;8.15;;;1.92;;
64225;SDS011;50545;56.064;26.178;2022-09-17T04:42:54;3.47;;;1.40;;
64225;SDS011;50545;56.064;26.178;2022-09-17T04:45:25;2.03;;;1.33;;
64225;SDS011;50545;56.064;26.178;2022-09-17T04:47:52;3.85;;;1.50;;
64225;SDS011;50545;56.064;26.178;2022-09-17T04:50:20;1.77;;;1.02;;
64225;SDS011;50545;56.064;26.178;2022-09-17T04:52:47;1.92;;;1.42;;
64225;SDS011;50545;56.064;26.178;2022-09-17T04:55:15;1.85;;;1.30;;
64225;SDS011;50545;56.064;26.178;2022-09-17T04:57:46;3.80;;;1.60;;
64225;SDS011;50545;56.064;26.178;2022-09-17T05:00:18;2.55;;;1.25;;
64225;SDS011;50545;56.064;26.178;2022-09-17T05:02:47;1.65;;;1.45;;
64225;SDS011;50545;56.064;26.178;2022-09-17T05:05:16;3.03;;;1.35;;
64225;SDS011;50545;56.064;26.178;2022-09-17T05:07:44;2.58;;;1.48;;
64225;SDS011;50545;56.064;26.178;2022-09-17T05:10:12;2.40;;;1.23;;
64225;SDS011;50545;56.064;26.178;2022-09-17T05:12:46;2.50;;;1.38;;
64225;SDS011;50545;56.064;26.178;2022-09-17T05:15:17;2.50;;;1.52;;
64225;SDS011;50545;56.064;26.178;2022-09-17T05:17:45;2.22;;;1.52;;
64225;SDS011;50545;56.064;26.178;2022-09-17T05:20:13;2.45;;;1.58;;
64225;SDS011;50545;56.064;26.178;2022-09-17T05:22:41;1.90;;;1.50;;
64225;SDS011;50545;56.064;26.178;2022-09-17T05:25:12;2.63;;;1.40;;
64225;SDS011;50545;56.064;26.178;2022-09-17T05:27:41;2.20;;;1.50;;
64225;SDS011;50545;56.064;26.178;2022-09-17T05:30:09;3.95;;;1.80;;
64225;SDS011;50545;56.064;26.178;2022-09-17T05:32:37;3.42;;;1.73;;
64225;SDS011;50545;56.064;26.178;2022-09-17T05:35:06;2.85;;;1.55;;
64225;SDS011;50545;56.064;26.178;2022-09-17T05:37:35;2.70;;;1.50;;
64225;SDS011;50545;56.064;26.178;2022-09-17T05:40:03;2.05;;;1.30;;
64225;SDS011;50545;56.064;26.178;2022-09-17T05:42:32;3.45;;;1.52;;
64225;SDS011;50545;56.064;26.178;2022-09-17T05:45:00;4.10;;;1.20;;
64225;SDS011;50545;56.064;26.178;2022-09-17T05:47:27;4.68;;;1.65;;
64225;SDS011;50545;56.064;26.178;2022-09-17T05:49:54;4.28;;;1.50;;
64225;SDS011;50545;56.064;26.178;2022-09-17T05:52:21;1.45;;;1.30;;
64225;SDS011;50545;56.064;26.178;2022-09-17T05:54:54;3.97;;;1.58;;
64225;SDS011;50545;56.064;26.178;2022-09-17T05:57:22;1.65;;;1.20;;
64225;SDS011;50545;56.064;26.178;2022-09-17T05:59:49;4.40;;;1.50;;
64225;SDS011;50545;56.064;26.178;2022-09-17T06:02:16;2.00;;;1.30;;
64225;SDS011;50545;56.064;26.178;2022-09-17T06:04:44;2.33;;;1.52;;
64225;SDS011;50545;56.064;26.178;2022-09-17T06:07:12;2.85;;;1.75;;
64225;SDS011;50545;56.064;26.178;2022-09-17T06:09:39;1.67;;;1.27;;
64225;SDS011;50545;56.064;26.178;2022-09-17T06:12:06;2.78;;;1.52;;
64225;SDS011;50545;56.064;26.178;2022-09-17T06:14:34;3.00;;;1.58;;
64225;SDS011;50545;56.064;26.178;2022-09-17T06:17:01;2.53;;;1.13;;
64225;SDS011;50545;56.064;26.178;2022-09-17T06:19:28;3.15;;;1.40;;
64225;SDS011;50545;56.064;26.178;2022-09-17T06:21:56;3.38;;;1.85;;
64225;SDS011;50545;56.064;26.178;2022-09-17T06:24:23;3.67;;;1.60;;
64225;SDS011;50545;56.064;26.178;2022-09-17T06:26:51;2.40;;;1.42;;
64225;SDS011;50545;56.064;26.178;2022-09-17T06:29:19;3.45;;;1.90;;
64225;SDS011;50545;56.064;26.178;2022-09-17T06:31:47;2.92;;;1.63;;
64225;SDS011;50545;56.064;26.178;2022-09-17T06:34:15;3.78;;;1.70;;
64225;SDS011;50545;56.064;26.178;2022-09-17T06:36:43;2.65;;;1.52;;
64225;SDS011;50545;56.064;26.178;2022-09-17T06:39:10;2.63;;;1.40;;
64225;SDS011;50545;56.064;26.178;2022-09-17T06:41:38;2.60;;;1.42;;
64225;SDS011;50545;56.064;26.178;2022-09-17T06:44:07;2.85;;;1.52;;
64225;SDS011;50545;56.064;26.178;2022-09-17T06:46:36;2.50;;;1.40;;
64225;SDS011;50545;56.064;26.178;2022-09-17T06:49:03;2.05;;;1.30;;
64225;SDS011;50545;56.064;26.178;2022-09-17T06:51:31;3.47;;;1.65;;
64225;SDS011;50545;56.064;26.178;2022-09-17T06:53:58;3.85;;;1.63;;
64225;SDS011;50545;56.064;26.178;2022-09-17T06:56:26;6.97;;;1.60;;
64225;SDS011;50545;56.064;26.178;2022-09-17T06:58:53;2.65;;;1.80;;
64225;SDS011;50545;56.064;26.178;2022-09-17T07:01:20;4.10;;;1.65;;
64225;SDS011;50545;56.064;26.178;2022-09-17T07:03:48;1.92;;;1.25;;
64225;SDS011;50545;56.064;26.178;2022-09-17T07:06:15;2.97;;;1.33;;
64225;SDS011;50545;56.064;26.178;2022-09-17T07:08:43;2.92;;;1.60;;
64225;SDS011;50545;56.064;26.178;2022-09-17T07:11:10;1.83;;;1.40;;
64225;SDS011;50545;56.064;26.178;2022-09-17T07:13:37;2.20;;;1.50;;
64225;SDS011;50545;56.064;26.178;2022-09-17T07:16:06;3.03;;;1.60;;
64225;SDS011;50545;56.064;26.178;2022-09-17T07:18:33;3.47;;;1.70;;
64225;SDS011;50545;56.064;26.178;2022-09-17T07:21:03;3.17;;;1.65;;
64225;SDS011;50545;56.064;26.178;2022-09-17T07:23:34;3.38;;;1.40;;
64225;SDS011;50545;56.064;26.178;2022-09-17T07:26:04;1.80;;;1.52;;
64225;SDS011;50545;56.064;26.178;2022-09-17T07:28:33;1.98;;;1.45;;
64225;SDS011;50545;56.064;26.178;2022-09-17T07:31:03;2.38;;;1.60;;
64225;SDS011;50545;56.064;26.178;2022-09-17T07:33:33;2.03;;;1.15;;
64225;SDS011;50545;56.064;26.178;2022-09-17T07:36:03;3.33;;;1.65;;
64225;SDS011;50545;56.064;26.178;2022-09-17T07:41:04;1.92;;;1.42;;
64225;SDS011;50545;56.064;26.178;2022-09-17T07:43:32;1.55;;;1.30;;
64225;SDS011;50545;56.064;26.178;2022-09-17T07:46:01;3.47;;;1.40;;
64225;SDS011;50545;56.064;26.178;2022-09-17T07:48:30;2.70;;;1.63;;
64225;SDS011;50545;56.064;26.178;2022-09-17T07:50:58;2.38;;;1.55;;
64225;SDS011;50545;56.064;26.178;2022-09-17T07:53:25;4.20;;;1.75;;
64225;SDS011;50545;56.064;26.178;2022-09-17T07:55:56;1.33;;;1.20;;
64225;SDS011;50545;56.064;26.178;2022-09-17T07:58:29;4.95;;;1.40;;
64225;SDS011;50545;56.064;26.178;2022-09-17T08:01:06;4.07;;;1.35;;
64225;SDS011;50545;56.064;26.178;2022-09-17T08:03:34;3.65;;;1.58;;
64225;SDS011;50545;56.064;26.178;2022-09-17T08:06:03;3.00;;;1.40;;
64225;SDS011;50545;56.064;26.178;2022-09-17T08:08:35;3.10;;;1.50;;
64225;SDS011;50545;56.064;26.178;2022-09-17T08:11:04;2.88;;;1.45;;
64225;SDS011;50545;56.064;26.178;2022-09-17T08:13:32;2.15;;;1.38;;
64225;SDS011;50545;56.064;26.178;2022-09-17T08:16:00;3.00;;;1.55;;
64225;SDS011;50545;56.064;26.178;2022-09-17T08:18:29;3.58;;;1.50;;
64225;SDS011;50545;56.064;26.178;2022-09-17T08:20:57;2.58;;;1.58;;
64225;SDS011;50545;56.064;26.178;2022-09-17T08:23:25;2.28;;;1.42;;
64225;SDS011;50545;56.064;26.178;2022-09-17T08:26:02;2.63;;;1.63;;
64225;SDS011;50545;56.064;26.178;2022-09-17T08:28:33;1.35;;;1.25;;
64225;SDS011;50545;56.064;26.178;2022-09-17T08:31:01;2.28;;;1.50;;
64225;SDS011;50545;56.064;26.178;2022-09-17T08:33:35;1.95;;;1.50;;
64225;SDS011;50545;56.064;26.178;2022-09-17T08:36:05;1.38;;;1.20;;
64225;SDS011;50545;56.064;26.178;2022-09-17T08:38:34;2.83;;;1.45;;
64225;SDS011;50545;56.064;26.178;2022-09-17T08:43:48;1.05;;;0.95;;
64225;SDS011;50545;56.064;26.178;2022-09-17T08:46:19;3.53;;;1.40;;
64225;SDS011;50545;56.064;26.178;2022-09-17T08:54:27;1.77;;;1.10;;
64225;SDS011;50545;56.064;26.178;2022-09-17T08:57:04;3.42;;;1.40;;
64225;SDS011;50545;56.064;26.178;2022-09-17T08:59:45;2.67;;;1.52;;
64225;SDS011;50545;56.064;26.178;2022-09-17T09:05:22;3.00;;;1.52;;
64225;SDS011;50545;56.064;26.178;2022-09-17T09:08:10;1.20;;;1.10;;
64225;SDS011;50545;56.064;26.178;2022-09-17T09:10:54;2.30;;;1.40;;
64225;SDS011;50545;56.064;26.178;2022-09-17T09:13:24;2.40;;;1.40;;
64225;SDS011;50545;56.064;26.178;2022-09-17T09:16:06;6.18;;;1.60;;
64225;SDS011;50545;56.064;26.178;2022-09-17T09:18:43;2.53;;;1.55;;
64225;SDS011;50545;56.064;26.178;2022-09-17T09:24:15;3.22;;;1.63;;
64225;SDS011;50545;56.064;26.178;2022-09-17T09:30:00;3.45;;;1.50;;
64225;SDS011;50545;56.064;26.178;2022-09-17T09:37:56;3.63;;;1.50;;
64225;SDS011;50545;56.064;26.178;2022-09-17T09:43:16;2.90;;;1.58;;
64225;SDS011;50545;56.064;26.178;2022-09-17T09:58:26;2.55;;;1.38;;
64225;SDS011;50545;56.064;26.178;2022-09-17T10:01:02;3.03;;;1.50;;
64225;SDS011;50545;56.064;26.178;2022-09-17T10:03:41;1.55;;;1.45;;
64225;SDS011;50545;56.064;26.178;2022-09-17T10:06:12;2.88;;;1.52;;
64225;SDS011;50545;56.064;26.178;2022-09-17T10:11:24;2.25;;;1.20;;
64225;SDS011;50545;56.064;26.178;2022-09-17T10:13:54;3.33;;;1.52;;
64225;SDS011;50545;56.064;26.178;2022-09-17T10:17:18;2.42;;;1.50;;
64225;SDS011;50545;56.064;26.178;2022-09-17T10:19:45;5.15;;;1.48;;
64225;SDS011;50545;56.064;26.178;2022-09-17T10:22:41;1.70;;;1.45;;
64225;SDS011;50545;56.064;26.178;2022-09-17T10:25:43;2.72;;;1.42;;
64225;SDS011;50545;56.064;26.178;2022-09-17T10:28:20;1.67;;;1.15;;
64225;SDS011;50545;56.064;26.178;2022-09-17T10:30:57;2.97;;;1.27;;
64225;SDS011;50545;56.064;26.178;2022-09-17T10:36:40;2.35;;;1.50;;
64225;SDS011;50545;56.064;26.178;2022-09-17T10:44:29;1.70;;;1.23;;
64225;SDS011;50545;56.064;26.178;2022-09-17T10:49:36;2.40;;;1.27;;
64225;SDS011;50545;56.064;26.178;2022-09-17T10:52:32;2.47;;;1.33;;
64225;SDS011;50545;56.064;26.178;2022-09-17T11:05:44;1.73;;;1.30;;
64225;SDS011;50545;56.064;26.178;2022-09-17T11:08:33;2.78;;;1.20;;
64225;SDS011;50545;56.064;26.178;2022-09-17T11:23:14;2.15;;;1.60;;
64225;SDS011;50545;56.064;26.178;2022-09-17T11:28:32;3.10;;;1.40;;
64225;SDS011;50545;56.064;26.178;2022-09-17T11:31:20;2.65;;;1.48;;
64225;SDS011;50545;56.064;26.178;2022-09-17T11:42:46;4.78;;;1.52;;
64225;SDS011;50545;56.064;26.178;2022-09-17T11:45:17;3.17;;;1.40;;
64225;SDS011;50545;56.064;26.178;2022-09-17T11:47:59;2.15;;;1.20;;
64225;SDS011;50545;56.064;26.178;2022-09-17T11:50:39;3.25;;;1.42;;
64225;SDS011;50545;56.064;26.178;2022-09-17T11:53:34;1.67;;;1.20;;
64225;SDS011;50545;56.064;26.178;2022-09-17T11:59:43;1.77;;;1.35;;
64225;SDS011;50545;56.064;26.178;2022-09-17T12:02:04;2.70;;;1.27;;
64225;SDS011;50545;56.064;26.178;2022-09-17T12:12:54;1.92;;;1.00;;
64225;SDS011;50545;56.064;26.178;2022-09-17T12:15:28;2.28;;;1.20;;
64225;SDS011;50545;56.064;26.178;2022-09-17T12:20:57;2.63;;;1.50;;
64225;SDS011;50545;56.064;26.178;2022-09-17T12:26:10;3.97;;;1.45;;
64225;SDS011;50545;56.064;26.178;2022-09-17T12:31:25;2.42;;;1.50;;
64225;SDS011;50545;56.064;26.178;2022-09-17T12:34:24;2.35;;;1.40;;
64225;SDS011;50545;56.064;26.178;2022-09-17T12:43:19;2.38;;;1.50;;
64225;SDS011;50545;56.064;26.178;2022-09-17T13:00:13;3.20;;;1.63;;
64225;SDS011;50545;56.064;26.178;2022-09-17T13:13:47;2.10;;;1.40;;
64225;SDS011;50545;56.064;26.178;2022-09-17T13:22:15;1.65;;;1.27;;
64225;SDS011;50545;56.064;26.178;2022-09-17T13:24:44;1.70;;;1.40;;
64225;SDS011;50545;56.064;26.178;2022-09-17T13:27:19;2.30;;;1.48;;
64225;SDS011;50545;56.064;26.178;2022-09-17T13:37:37;1.60;;;1.40;;
64225;SDS011;50545;56.064;26.178;2022-09-17T13:43:09;3.47;;;1.52;;
64225;SDS011;50545;56.064;26.178;2022-09-17T13:48:26;2.55;;;1.48;;
64225;SDS011;50545;56.064;26.178;2022-09-17T13:51:40;1.73;;;1.30;;
64225;SDS011;50545;56.064;26.178;2022-09-17T13:54:09;1.20;;;1.00;;
64225;SDS011;50545;56.064;26.178;2022-09-17T13:56:38;1.40;;;1.08;;
64225;SDS011;50545;56.064;26.178;2022-09-17T13:59:10;2.22;;;1.10;;
64225;SDS011;50545;56.064;26.178;2022-09-17T14:01:57;1.23;;;1.08;;
64225;SDS011;50545;56.064;26.178;2022-09-17T14:09:50;1.20;;;1.10;;
64225;SDS011;50545;56.064;26.178;2022-09-17T14:20:55;1.10;;;1.10;;
64225;SDS011;50545;56.064;26.178;2022-09-17T14:23:32;1.27;;;1.17;;
64225;SDS011;50545;56.064;26.178;2022-09-17T14:26:09;1.70;;;1.50;;
64225;SDS011;50545;56.064;26.178;2022-09-17T14:31:39;2.05;;;1.05;;
64225;SDS011;50545;56.064;26.178;2022-09-17T14:34:09;3.17;;;1.42;;
64225;SDS011;50545;56.064;26.178;2022-09-17T14:36:45;3.17;;;1.60;;
64225;SDS011;50545;56.064;26.178;2022-09-17T14:39:24;2.08;;;1.20;;
64225;SDS011;50545;56.064;26.178;2022-09-17T14:41:55;2.08;;;1.42;;
64225;SDS011;50545;56.064;26.178;2022-09-17T14:44:24;1.85;;;1.23;;
64225;SDS011;50545;56.064;26.178;2022-09-17T14:47:01;1.17;;;1.00;;
64225;SDS011;50545;56.064;26.178;2022-09-17T14:49:34;3.20;;;1.33;;
64225;SDS011;50545;56.064;26.178;2022-09-17T14:52:18;1.23;;;1.10;;
64225;SDS011;50545;56.064;26.178;2022-09-17T14:55:30;2.30;;;1.00;;
64225;SDS011;50545;56.064;26.178;2022-09-17T14:57:56;2.50;;;1.40;;
64225;SDS011;50545;56.064;26.178;2022-09-17T15:00:32;1.45;;;1.00;;
64225;SDS011;50545;56.064;26.178;2022-09-17T15:03:01;1.20;;;1.10;;
64225;SDS011;50545;56.064;26.178;2022-09-17T15:05:29;1.15;;;1.00;;
64225;SDS011;50545;56.064;26.178;2022-09-17T15:13:27;0.82;;;0.80;;
64225;SDS011;50545;56.064;26.178;2022-09-17T15:16:03;0.82;;;0.75;;
64225;SDS011;50545;56.064;26.178;2022-09-17T15:18:37;1.90;;;0.93;;
64225;SDS011;50545;56.064;26.178;2022-09-17T15:21:37;0.60;;;0.60;;
64225;SDS011;50545;56.064;26.178;2022-09-17T15:26:58;0.60;;;0.60;;
64225;SDS011;50545;56.064;26.178;2022-09-17T15:29:35;1.33;;;0.77;;
64225;SDS011;50545;56.064;26.178;2022-09-17T15:32:04;1.05;;;0.73;;
64225;SDS011;50545;56.064;26.178;2022-09-17T15:34:32;0.50;;;0.50;;
64225;SDS011;50545;56.064;26.178;2022-09-17T15:37:03;0.85;;;0.80;;
64225;SDS011;50545;56.064;26.178;2022-09-17T15:39:49;1.45;;;0.50;;
64225;SDS011;50545;56.064;26.178;2022-09-17T15:42:19;2.42;;;0.60;;
64225;SDS011;50545;56.064;26.178;2022-09-17T15:45:15;3.42;;;0.90;;
64225;SDS011;50545;56.064;26.178;2022-09-17T15:47:53;0.82;;;0.82;;
64225;SDS011;50545;56.064;26.178;2022-09-17T15:50:28;1.10;;;0.90;;
64225;SDS011;50545;56.064;26.178;2022-09-17T15:52:57;2.20;;;0.75;;
64225;SDS011;50545;56.064;26.178;2022-09-17T15:55:39;0.70;;;0.70;;
64225;SDS011;50545;56.064;26.178;2022-09-17T16:08:45;1.27;;;1.00;;
64225;SDS011;50545;56.064;26.178;2022-09-17T16:11:13;1.13;;;0.80;;
64225;SDS011;50545;56.064;26.178;2022-09-17T16:13:44;0.80;;;0.80;;
64225;SDS011;50545;56.064;26.178;2022-09-17T16:16:13;2.67;;;0.80;;
64225;SDS011;50545;56.064;26.178;2022-09-17T16:18:43;1.58;;;0.98;;
64225;SDS011;50545;56.064;26.178;2022-09-17T16:21:12;1.25;;;0.73;;
64225;SDS011;50545;56.064;26.178;2022-09-17T16:23:40;2.00;;;0.80;;
64225;SDS011;50545;56.064;26.178;2022-09-17T16:29:14;0.88;;;0.80;;
64225;SDS011;50545;56.064;26.178;2022-09-17T16:31:43;2.08;;;0.82;;
64225;SDS011;50545;56.064;26.178;2022-09-17T16:34:10;1.02;;;0.80;;
64225;SDS011;50545;56.064;26.178;2022-09-17T16:36:37;1.45;;;0.80;;
64225;SDS011;50545;56.064;26.178;2022-09-17T16:39:05;1.23;;;0.80;;
64225;SDS011;50545;56.064;26.178;2022-09-17T16:41:32;1.52;;;0.90;;
64225;SDS011;50545;56.064;26.178;2022-09-17T16:43:59;1.65;;;0.60;;
64225;SDS011;50545;56.064;26.178;2022-09-17T16:46:27;1.00;;;0.65;;
64225;SDS011;50545;56.064;26.178;2022-09-17T16:48:55;1.08;;;0.90;;
64225;SDS011;50545;56.064;26.178;2022-09-17T16:51:22;2.13;;;1.02;;
64225;SDS011;50545;56.064;26.178;2022-09-17T16:53:50;0.55;;;0.55;;
64225;SDS011;50545;56.064;26.178;2022-09-17T16:56:17;0.73;;;0.65;;
64225;SDS011;50545;56.064;26.178;2022-09-17T16:58:45;1.73;;;0.77;;
64225;SDS011;50545;56.064;26.178;2022-09-17T17:01:13;2.17;;;0.77;;
64225;SDS011;50545;56.064;26.178;2022-09-17T17:03:41;1.42;;;0.60;;
64225;SDS011;50545;56.064;26.178;2022-09-17T17:06:15;0.50;;;0.50;;
64225;SDS011;50545;56.064;26.178;2022-09-17T17:08:43;1.65;;;1.00;;
64225;SDS011;50545;56.064;26.178;2022-09-17T17:11:10;1.50;;;0.85;;
64225;SDS011;50545;56.064;26.178;2022-09-17T17:13:38;1.35;;;0.60;;
64225;SDS011;50545;56.064;26.178;2022-09-17T17:16:08;0.40;;;0.40;;
64225;SDS011;50545;56.064;26.178;2022-09-17T17:18:36;0.73;;;0.63;;
64225;SDS011;50545;56.064;26.178;2022-09-17T17:21:07;0.55;;;0.55;;
64225;SDS011;50545;56.064;26.178;2022-09-17T17:23:36;0.55;;;0.52;;
64225;SDS011;50545;56.064;26.178;2022-09-17T17:26:04;1.17;;;0.80;;
64225;SDS011;50545;56.064;26.178;2022-09-17T17:28:31;1.73;;;0.90;;
64225;SDS011;50545;56.064;26.178;2022-09-17T17:31:01;0.60;;;0.60;;
64225;SDS011;50545;56.064;26.178;2022-09-17T17:33:29;0.70;;;0.70;;
64225;SDS011;50545;56.064;26.178;2022-09-17T17:36:00;0.82;;;0.52;;
64225;SDS011;50545;56.064;26.178;2022-09-17T17:38:34;1.17;;;1.08;;
64225;SDS011;50545;56.064;26.178;2022-09-17T17:41:03;0.73;;;0.70;;
64225;SDS011;50545;56.064;26.178;2022-09-17T17:43:34;1.38;;;0.93;;
64225;SDS011;50545;56.064;26.178;2022-09-17T17:46:06;3.70;;;0.90;;
64225;SDS011;50545;56.064;26.178;2022-09-17T17:48:34;0.70;;;0.63;;
64225;SDS011;50545;56.064;26.178;2022-09-17T17:51:06;1.20;;;0.90;;
64225;SDS011;50545;56.064;26.178;2022-09-17T17:53:35;1.05;;;0.75;;
64225;SDS011;50545;56.064;26.178;2022-09-17T17:56:03;1.23;;;1.08;;
64225;SDS011;50545;56.064;26.178;2022-09-17T17:58:33;1.10;;;0.80;;
64225;SDS011;50545;56.064;26.178;2022-09-17T18:01:14;0.60;;;0.60;;
64225;SDS011;50545;56.064;26.178;2022-09-17T18:03:44;0.75;;;0.73;;
64225;SDS011;50545;56.064;26.178;2022-09-17T18:06:12;1.70;;;0.95;;
64225;SDS011;50545;56.064;26.178;2022-09-17T18:08:41;1.10;;;0.90;;
64225;SDS011;50545;56.064;26.178;2022-09-17T18:11:10;1.17;;;0.90;;
64225;SDS011;50545;56.064;26.178;2022-09-17T18:13:38;1.25;;;0.95;;
64225;SDS011;50545;56.064;26.178;2022-09-17T18:16:06;3.05;;;0.95;;
64225;SDS011;50545;56.064;26.178;2022-09-17T18:18:38;0.70;;;0.70;;
64225;SDS011;50545;56.064;26.178;2022-09-17T18:21:11;0.70;;;0.70;;
64225;SDS011;50545;56.064;26.178;2022-09-17T18:23:43;0.57;;;0.57;;
64225;SDS011;50545;56.064;26.178;2022-09-17T18:26:12;0.73;;;0.73;;
64225;SDS011;50545;56.064;26.178;2022-09-17T18:28:41;1.35;;;0.90;;
64225;SDS011;50545;56.064;26.178;2022-09-17T18:33:55;1.52;;;0.93;;
64225;SDS011;50545;56.064;26.178;2022-09-17T18:36:27;0.80;;;0.70;;
64225;SDS011;50545;56.064;26.178;2022-09-17T18:38:57;0.80;;;0.80;;
64225;SDS011;50545;56.064;26.178;2022-09-17T18:41:48;1.10;;;1.00;;
64225;SDS011;50545;56.064;26.178;2022-09-17T18:44:15;1.17;;;0.88;;
64225;SDS011;50545;56.064;26.178;2022-09-17T18:46:44;1.08;;;0.90;;
64225;SDS011;50545;56.064;26.178;2022-09-17T18:49:13;1.27;;;0.90;;
64225;SDS011;50545;56.064;26.178;2022-09-17T18:51:41;1.45;;;0.77;;
64225;SDS011;50545;56.064;26.178;2022-09-17T18:54:09;2.70;;;0.93;;
64225;SDS011;50545;56.064;26.178;2022-09-17T18:56:38;0.88;;;0.80;;
64225;SDS011;50545;56.064;26.178;2022-09-17T18:59:07;1.85;;;0.98;;
64225;SDS011;50545;56.064;26.178;2022-09-17T19:01:35;1.10;;;0.82;;
64225;SDS011;50545;56.064;26.178;2022-09-17T19:04:03;1.92;;;1.05;;
64225;SDS011;50545;56.064;26.178;2022-09-17T19:06:33;1.17;;;1.00;;